Time;durP1;ratioP1;P1;durP2;ratioP2;P2;SDS_P1;SDS_P2;PMS_P1;PMS_P2;Temp;Humidity;BMP_temperature;BMP_pressure;BME280_temperature;BME280_humidity;BME280_pressure;Samples;Min_cycle;Max_cycle;Signal;HPM_P1;HPM_P2
2023/10/01 00:00:10;;;;;;;30.58;10.55;;;13.60;99.90;;;;;;4967675;28;20569;-68
2023/10/01 00:02:37;;;;;;;32.17;10.70;;;13.60;99.90;;;;;;4967716;28;20019;-72
2023/10/01 00:05:06;;;;;;;31.88;10.95;;;13.70;99.90;;;;;;4967201;28;20027;-73
2023/10/01 00:07:37;;;;;;;25.02;10.38;;;13.70;99.90;;;;;;4967220;28;20046;-73
2023/10/01 00:10:11;;;;;;;33.35;11.77;;;13.60;99.90;;;;;;4967691;28;20023;-73
2023/10/01 00:12:48;;;;;;;28.75;10.85;;;13.50;99.90;;;;;;4966430;28;20035;-73
2023/10/01 00:15:16;;;;;;;26.02;10.02;;;13.50;99.90;;;;;;4967356;28;20058;-73
2023/10/01 00:17:46;;;;;;;26.23;10.55;;;13.50;99.90;;;;;;4967665;28;20031;-74
2023/10/01 00:20:20;;;;;;;32.70;12.30;;;13.40;99.90;;;;;;4967972;28;20069;-72
2023/10/01 00:22:46;;;;;;;22.52;9.93;;;13.40;99.90;;;;;;4967366;28;20061;-68
2023/10/01 00:25:12;;;;;;;29.75;11.07;;;13.40;99.90;;;;;;4967476;28;20043;-71
2023/10/01 00:27:38;;;;;;;28.55;10.77;;;13.30;99.90;;;;;;4967436;28;20039;-72
2023/10/01 00:30:09;;;;;;;30.02;10.43;;;13.30;99.90;;;;;;4966998;28;20034;-73
2023/10/01 00:32:39;;;;;;;26.63;10.07;;;13.30;99.90;;;;;;4969623;28;20042;-73
2023/10/01 00:35:06;;;;;;;29.40;10.88;;;13.30;99.90;;;;;;4971325;28;20182;-72
2023/10/01 00:37:33;;;;;;;28.65;11.10;;;13.20;99.90;;;;;;4970819;28;20181;-73
2023/10/01 00:40:00;;;;;;;27.13;10.32;;;13.20;99.90;;;;;;4970873;28;20019;-73
2023/10/01 00:42:29;;;;;;;32.78;10.95;;;13.20;99.90;;;;;;4970412;28;20061;-72
2023/10/01 00:44:57;;;;;;;26.90;10.13;;;13.20;99.90;;;;;;4971118;28;20066;-71
2023/10/01 00:47:26;;;;;;;28.00;11.60;;;13.20;99.90;;;;;;4971228;28;20027;-71
2023/10/01 00:49:52;;;;;;;31.63;11.30;;;13.10;99.90;;;;;;4971563;28;20031;-71
2023/10/01 00:52:19;;;;;;;;;;;13.10;99.90;;;;;;4971614;28;20038;-74
2023/10/01 00:54:45;;;;;;;29.75;11.90;;;13.20;99.90;;;;;;5002110;28;19917;-74
2023/10/01 00:57:11;;;;;;;24.17;9.88;;;13.10;99.90;;;;;;4970715;28;20026;-74
2023/10/01 00:59:37;;;;;;;27.05;10.23;;;13.20;99.90;;;;;;4970884;28;20096;-73
2023/10/01 01:02:07;;;;;;;23.92;10.63;;;13.10;99.90;;;;;;4971012;28;20061;-74
2023/10/01 01:04:42;;;;;;;29.58;11.07;;;13.10;99.90;;;;;;4971106;28;20046;-73
2023/10/01 01:07:16;;;;;;;29.05;11.13;;;13.10;99.90;;;;;;4970854;28;20038;-73
2023/10/01 01:09:45;;;;;;;25.90;10.02;;;13.00;99.90;;;;;;4972393;28;20648;-74
2023/10/01 01:12:12;;;;;;;29.15;9.73;;;13.00;99.90;;;;;;4972803;28;20038;-72
2023/10/01 01:14:39;;;;;;;23.75;10.32;;;13.00;99.90;;;;;;4971865;28;20058;-72
2023/10/01 01:17:05;;;;;;;29.00;10.85;;;12.90;99.90;;;;;;4971441;28;20179;-69
2023/10/01 01:19:34;;;;;;;27.60;10.52;;;13.00;99.90;;;;;;4971157;28;20027;-71
2023/10/01 01:22:01;;;;;;;23.95;10.40;;;12.90;99.90;;;;;;4971248;28;20059;-70
2023/10/01 01:24:28;;;;;;;32.40;11.15;;;12.90;99.90;;;;;;4970598;28;20089;-69
2023/10/01 01:27:00;;;;;;;30.40;11.07;;;13.00;99.90;;;;;;4969974;28;20541;-70
2023/10/01 01:29:33;;;;;;;27.88;10.82;;;13.00;99.90;;;;;;4969584;28;20483;-69
2023/10/01 01:32:15;;;;;;;24.83;10.35;;;12.90;99.90;;;;;;4970084;28;20039;-69
2023/10/01 01:34:41;;;;;;;25.05;9.75;;;12.90;99.90;;;;;;4968727;28;20452;-69
2023/10/01 01:37:08;;;;;;;;;;;12.80;99.90;;;;;;4970331;28;20026;-70
2023/10/01 01:39:51;;;;;;;35.70;12.77;;;12.80;99.90;;;;;;4969730;28;20362;-73
2023/10/01 01:42:21;;;;;;;31.38;11.43;;;12.80;99.90;;;;;;4969491;28;20031;-71
2023/10/01 01:47:40;;;;;;;28.42;10.95;;;12.70;99.90;;;;;;4969822;28;20054;-71
2023/10/01 01:50:19;;;;;;;23.97;10.23;;;12.80;99.90;;;;;;4969379;28;20030;-73
2023/10/01 01:52:50;;;;;;;25.35;10.25;;;12.90;99.90;;;;;;4970344;28;20548;-72
2023/10/01 01:55:23;;;;;;;22.15;10.38;;;12.70;99.90;;;;;;4968510;28;20038;-73
2023/10/01 01:58:04;;;;;;;24.15;9.65;;;12.70;99.90;;;;;;4970305;28;20031;-74
2023/10/01 02:00:34;;;;;;;25.77;9.63;;;12.70;99.90;;;;;;4969911;28;20491;-74
2023/10/01 02:03:05;;;;;;;23.42;10.48;;;12.70;99.90;;;;;;4969988;28;20035;-73
2023/10/01 02:05:30;;;;;;;39.25;11.23;;;12.70;99.90;;;;;;4950100;28;20066;-69
2023/10/01 02:08:06;;;;;;;25.07;10.13;;;12.60;99.90;;;;;;4950113;28;20027;-72
2023/10/01 02:10:44;;;;;;;31.52;10.82;;;12.70;99.90;;;;;;4950381;28;20043;-71
2023/10/01 02:13:11;;;;;;;24.92;10.95;;;12.70;99.90;;;;;;4952278;28;20038;-73
2023/10/01 02:15:37;;;;;;;31.50;11.13;;;12.60;99.90;;;;;;4950032;28;20470;-73
2023/10/01 02:18:03;;;;;;;17.75;8.80;;;12.60;99.90;;;;;;4949815;28;20031;-71
2023/10/01 02:20:33;;;;;;;25.98;10.48;;;12.70;99.90;;;;;;4951132;28;20114;-69
2023/10/01 02:23:02;;;;;;;28.75;11.02;;;12.60;99.90;;;;;;4969497;28;20027;-70
2023/10/01 02:25:37;;;;;;;25.00;11.43;;;12.60;99.90;;;;;;4969008;28;20061;-70
2023/10/01 02:28:11;;;;;;;26.50;9.98;;;12.50;99.90;;;;;;4969075;28;20479;-75
2023/10/01 02:30:37;;;;;;;30.70;11.43;;;12.60;99.90;;;;;;4980935;28;20399;-73
2023/10/01 02:33:16;;;;;;;28.30;11.53;;;12.60;99.90;;;;;;4968618;28;20030;-74
2023/10/01 02:35:42;;;;;;;25.25;10.18;;;12.50;99.90;;;;;;4961158;28;20299;-75
2023/10/01 02:38:36;;;;;;;29.05;11.23;;;12.50;99.90;;;;;;4964250;28;20029;-75
2023/10/01 02:40:57;;;;;;;32.92;10.55;;;12.50;99.90;;;;;;4956530;28;20042;-74
2023/10/01 02:43:25;;;;;;;24.23;10.68;;;12.50;99.90;;;;;;4969064;28;20113;-74
2023/10/01 02:45:51;;;;;;;35.80;11.38;;;12.50;99.90;;;;;;4969101;28;20122;-72
2023/10/01 02:48:17;;;;;;;29.40;10.97;;;12.50;99.90;;;;;;4962651;28;20420;-74
2023/10/01 02:50:52;;;;;;;24.67;9.50;;;12.40;99.90;;;;;;4950000;28;20097;-74
2023/10/01 02:53:25;;;;;;;25.50;11.15;;;12.40;99.90;;;;;;4949689;28;20488;-74
2023/10/01 02:55:51;;;;;;;23.75;9.73;;;12.40;99.90;;;;;;4948814;28;20503;-73
2023/10/01 02:58:20;;;;;;;28.55;9.52;;;12.40;99.90;;;;;;4949795;28;20034;-73
2023/10/01 03:00:50;;;;;;;28.10;10.65;;;12.40;99.90;;;;;;4949371;28;20480;-74
2023/10/01 03:03:17;;;;;;;24.95;10.32;;;12.30;99.90;;;;;;4950143;29;20117;-74
2023/10/01 03:05:44;;;;;;;;;;;12.40;99.90;;;;;;4950118;28;20050;-74
2023/10/01 03:10:56;;;;;;;31.67;10.55;;;12.20;99.90;;;;;;4967861;28;20030;-74
2023/10/01 03:13:30;;;;;;;33.35;12.55;;;12.20;99.90;;;;;;4968305;28;20031;-69
2023/10/01 03:18:46;;;;;;;30.55;9.95;;;12.20;99.90;;;;;;4968368;28;20034;-74
2023/10/01 03:21:19;;;;;;;30.55;10.52;;;12.10;99.90;;;;;;4968142;28;20107;-74
2023/10/01 03:23:51;;;;;;;22.85;10.25;;;12.00;99.90;;;;;;4964297;28;20410;-71
2023/10/01 03:26:17;;;;;;;33.10;11.18;;;12.00;99.90;;;;;;4965475;28;21413;-73
2023/10/01 03:31:29;;;;;;;27.95;11.70;;;11.90;99.90;;;;;;4960151;28;20042;-68
2023/10/01 03:33:54;;;;;;;26.77;10.13;;;12.00;99.90;;;;;;4968258;28;20415;-70
2023/10/01 03:36:25;;;;;;;38.13;11.50;;;12.00;99.90;;;;;;4968870;28;20042;-72
2023/10/01 03:38:58;;;;;;;24.45;10.10;;;12.00;99.90;;;;;;4968169;28;20030;-71
2023/10/01 03:41:27;;;;;;;27.88;10.20;;;12.00;99.90;;;;;;4968575;28;20406;-67
2023/10/01 03:44:08;;;;;;;24.15;10.00;;;12.00;99.90;;;;;;4967892;28;20948;-69
2023/10/01 03:46:42;;;;;;;31.60;12.35;;;11.90;99.90;;;;;;4968315;28;20035;-71
2023/10/01 03:51:52;;;;;;;28.67;11.07;;;11.90;99.90;;;;;;4968363;28;20079;-72
2023/10/01 03:57:11;;;;;;;24.42;10.70;;;11.90;99.90;;;;;;4968229;28;20415;-67
2023/10/01 03:59:38;;;;;;;24.95;11.50;;;11.80;99.90;;;;;;4971222;28;20101;-68
2023/10/01 04:02:26;;;;;;;27.00;11.82;;;11.80;99.90;;;;;;4973452;28;20486;-72
2023/10/01 04:04:58;;;;;;;25.60;11.35;;;11.90;99.90;;;;;;4982479;28;20561;-69
2023/10/01 04:07:40;;;;;;;25.90;10.43;;;11.80;99.90;;;;;;4979091;28;20501;-72
2023/10/01 04:10:14;;;;;;;28.27;10.85;;;11.70;99.90;;;;;;4981236;28;20035;-73
2023/10/01 04:12:58;;;;;;;31.67;11.68;;;11.70;99.90;;;;;;4979839;28;20451;-67
2023/10/01 04:15:30;;;;;;;36.00;10.93;;;11.80;99.90;;;;;;4979924;28;20113;-70
2023/10/01 04:20:47;;;;;;;28.00;10.52;;;11.70;99.90;;;;;;4977707;28;20523;-70
2023/10/01 04:23:32;;;;;;;28.85;10.40;;;11.70;99.90;;;;;;4977995;28;20529;-73
2023/10/01 04:26:05;;;;;;;27.73;10.93;;;11.70;99.90;;;;;;4976902;28;20043;-71
2023/10/01 04:28:44;;;;;;;27.70;11.02;;;11.70;99.90;;;;;;4975681;28;20018;-72
2023/10/01 04:31:15;;;;;;;30.80;11.50;;;11.70;99.90;;;;;;4984539;28;20041;-73
2023/10/01 04:33:44;;;;;;;29.73;11.30;;;11.70;99.90;;;;;;4989381;28;20057;-73
2023/10/01 04:36:11;;;;;;;24.23;11.48;;;11.70;99.90;;;;;;4983031;28;20117;-67
2023/10/01 04:38:37;;;;;;;;;;;11.70;99.90;;;;;;4980202;28;20598;-69
2023/10/01 04:41:03;;;;;;;31.65;10.93;;;11.60;99.90;;;;;;5011461;28;20278;-72
2023/10/01 04:43:34;;;;;;;34.00;11.48;;;11.50;99.90;;;;;;4978570;28;20478;-68
2023/10/01 04:46:03;;;;;;;34.97;11.82;;;11.60;99.90;;;;;;4969713;28;20088;-69
2023/10/01 04:48:29;;;;;;;36.58;13.90;;;11.60;99.90;;;;;;4977384;28;20034;-73
2023/10/01 04:50:55;;;;;;;29.80;10.77;;;11.60;99.90;;;;;;4978076;28;20034;-73
2023/10/01 04:53:25;;;;;;;30.88;10.23;;;11.50;99.90;;;;;;4979450;28;20403;-72
2023/10/01 04:56:05;;;;;;;28.45;10.95;;;11.50;99.90;;;;;;4978218;28;20042;-67
2023/10/01 04:58:38;;;;;;;28.63;10.55;;;11.60;99.90;;;;;;4984915;28;20037;-72
2023/10/01 05:01:10;;;;;;;25.33;10.90;;;11.60;99.90;;;;;;4978976;28;20035;-73
2023/10/01 05:03:39;;;;;;;24.48;9.90;;;11.60;99.90;;;;;;4978448;28;20022;-71
2023/10/01 05:06:13;;;;;;;28.30;10.90;;;11.50;99.90;;;;;;4976359;28;20452;-71
2023/10/01 05:08:42;;;;;;;28.63;10.48;;;11.50;99.90;;;;;;4980709;28;20141;-69
2023/10/01 05:11:11;;;;;;;27.80;10.18;;;11.50;99.90;;;;;;4976339;28;20045;-65
2023/10/01 05:13:41;;;;;;;30.38;11.55;;;11.50;99.90;;;;;;4977300;28;20023;-67
2023/10/01 05:16:12;;;;;;;35.10;10.60;;;11.50;99.90;;;;;;4977093;28;20031;-70
2023/10/01 05:18:38;;;;;;;24.67;10.38;;;11.40;99.90;;;;;;4978365;28;20027;-73
2023/10/01 05:21:12;;;;;;;32.08;11.98;;;11.50;99.90;;;;;;4978731;28;20022;-73
2023/10/01 05:23:41;;;;;;;27.75;9.90;;;11.40;99.90;;;;;;4971826;28;20073;-68
2023/10/01 05:26:08;;;;;;;26.35;9.32;;;11.40;99.90;;;;;;4973150;28;20030;-70
2023/10/01 05:28:36;;;;;;;27.48;11.32;;;11.30;99.90;;;;;;4980530;28;20073;-72
2023/10/01 05:31:12;;;;;;;36.50;11.43;;;11.30;99.90;;;;;;4984157;28;20034;-67
2023/10/01 05:33:38;;;;;;;27.02;11.07;;;11.30;99.90;;;;;;4965947;28;20163;-68
2023/10/01 05:36:05;;;;;;;29.00;10.25;;;11.30;99.90;;;;;;5011086;28;20038;-70
2023/10/01 05:38:35;;;;;;;28.33;10.18;;;11.30;99.90;;;;;;4973264;28;20069;-68
2023/10/01 05:41:05;;;;;;;28.27;9.60;;;11.30;99.90;;;;;;4977089;28;20504;-70
2023/10/01 05:43:37;;;;;;;21.80;9.68;;;11.30;99.90;;;;;;4980576;28;20034;-67
2023/10/01 05:46:08;;;;;;;30.42;10.75;;;11.40;99.90;;;;;;4975360;28;20133;-71
2023/10/01 05:48:39;;;;;;;29.23;11.10;;;11.30;99.90;;;;;;4973318;28;20504;-71
2023/10/01 05:51:08;;;;;;;26.42;11.65;;;11.40;99.90;;;;;;4976011;28;20042;-68
2023/10/01 05:53:36;;;;;;;37.72;12.20;;;11.40;99.90;;;;;;4975989;28;20038;-72
2023/10/01 05:56:12;;;;;;;23.95;10.13;;;11.40;99.90;;;;;;4976451;28;20507;-72
2023/10/01 05:58:40;;;;;;;37.92;11.32;;;11.40;99.90;;;;;;4966139;28;20084;-72
2023/10/01 06:01:05;;;;;;;25.83;10.43;;;11.40;99.90;;;;;;4978235;28;20522;-66
2023/10/01 06:03:33;;;;;;;30.03;11.57;;;11.40;99.90;;;;;;4972281;28;21032;-66
2023/10/01 06:05:59;;;;;;;27.08;10.82;;;11.40;99.90;;;;;;4976105;28;20392;-68
2023/10/01 06:08:26;;;;;;;33.50;10.32;;;11.40;99.90;;;;;;4978093;28;20057;-68
2023/10/01 06:10:59;;;;;;;29.15;11.57;;;11.50;99.90;;;;;;4972552;28;20039;-67
2023/10/01 06:13:28;;;;;;;25.88;10.32;;;11.50;99.90;;;;;;4972033;28;20032;-72
2023/10/01 06:16:11;;;;;;;24.02;9.57;;;11.60;99.90;;;;;;4972793;28;20057;-67
2023/10/01 06:18:49;;;;;;;38.05;12.20;;;11.60;99.90;;;;;;5009435;28;20502;-67
2023/10/01 06:21:26;;;;;;;27.45;10.15;;;11.60;99.90;;;;;;4980697;28;20022;-71
2023/10/01 06:23:53;;;;;;;22.33;10.00;;;11.60;99.90;;;;;;4972601;28;20050;-71
2023/10/01 06:26:37;;;;;;;24.55;10.95;;;11.70;99.90;;;;;;4982894;28;20125;-72
2023/10/01 06:29:07;;;;;;;36.55;13.15;;;11.70;99.90;;;;;;4978599;28;20023;-70
2023/10/01 06:31:52;;;;;;;27.33;11.65;;;11.70;99.90;;;;;;4977091;28;20495;-71
2023/10/01 06:34:23;;;;;;;25.58;10.90;;;11.80;99.90;;;;;;4982322;28;20028;-67
2023/10/01 06:36:57;;;;;;;27.25;10.20;;;11.90;99.90;;;;;;4972989;28;20054;-69
2023/10/01 06:39:27;;;;;;;32.35;11.93;;;11.90;99.90;;;;;;4975572;28;20109;-69
2023/10/01 06:41:53;;;;;;;27.52;10.10;;;12.00;99.90;;;;;;4974097;28;20058;-67
2023/10/01 06:44:19;;;;;;;29.52;10.93;;;12.00;99.90;;;;;;4976593;28;20505;-71
2023/10/01 06:46:47;;;;;;;28.65;11.10;;;12.10;99.90;;;;;;4974742;28;20043;-67
2023/10/01 06:49:12;;;;;;;28.27;10.43;;;12.20;99.90;;;;;;4972601;28;20202;-71
2023/10/01 06:51:47;;;;;;;30.83;10.87;;;12.40;99.90;;;;;;4979903;28;20525;-67
2023/10/01 06:54:13;;;;;;;26.90;10.55;;;12.50;99.90;;;;;;4976310;28;20023;-68
2023/10/01 06:56:44;;;;;;;;;;;12.70;99.90;;;;;;4977093;28;20415;-68
2023/10/01 06:59:13;;;;;;;19.42;8.38;;;13.40;99.90;;;;;;4985592;28;20583;-70
2023/10/01 07:01:56;;;;;;;23.48;10.23;;;14.00;99.90;;;;;;4976317;28;20031;-73
2023/10/01 07:04:25;;;;;;;26.17;9.55;;;14.50;99.90;;;;;;4970125;28;20047;-72
2023/10/01 07:06:51;;;;;;;27.35;10.90;;;15.80;99.90;;;;;;4968280;28;20477;-72
2023/10/01 07:09:24;;;;;;;30.00;10.50;;;16.80;99.90;;;;;;4976318;28;20034;-72
2023/10/01 07:12:09;;;;;;;28.15;10.23;;;17.40;99.70;;;;;;4976940;28;20035;-72
2023/10/01 07:14:43;;;;;;;28.60;9.95;;;18.10;97.20;;;;;;4976933;28;20403;-73
2023/10/01 07:17:15;;;;;;;24.20;10.02;;;16.70;99.20;;;;;;5007874;28;20037;-72
2023/10/01 07:19:42;;;;;;;30.55;11.32;;;16.30;99.90;;;;;;4976571;28;20038;-72
2023/10/01 07:22:14;;;;;;;30.70;12.40;;;15.30;99.90;;;;;;4976333;28;20033;-72
2023/10/01 07:24:40;;;;;;;29.98;11.15;;;15.10;99.90;;;;;;4976093;28;20441;-74
2023/10/01 07:27:07;;;;;;;22.85;10.15;;;15.30;99.90;;;;;;4969837;28;20089;-75
2023/10/01 07:29:41;;;;;;;27.25;11.55;;;15.20;99.90;;;;;;4979846;28;20061;-76
2023/10/01 07:32:08;;;;;;;27.67;10.55;;;15.10;99.90;;;;;;4975217;28;20081;-81
2023/10/01 07:34:42;;;;;;;26.85;10.90;;;15.10;99.90;;;;;;4977263;28;20583;-72
2023/10/01 07:37:08;;;;;;;33.05;12.48;;;15.00;99.90;;;;;;4971331;28;20030;-69
2023/10/01 07:39:35;;;;;;;;;;;15.20;99.90;;;;;;4974261;28;20058;-70
2023/10/01 07:42:04;;;;;;;26.35;9.63;;;15.20;99.90;;;;;;4979991;28;19914;-70
2023/10/01 07:44:35;;;;;;;30.02;10.88;;;15.60;99.90;;;;;;4980261;28;20077;-68
2023/10/01 07:47:03;;;;;;;24.63;10.63;;;15.60;99.90;;;;;;4978251;28;20050;-68
2023/10/01 07:49:46;;;;;;;30.17;11.43;;;15.50;99.90;;;;;;4969535;28;20030;-67
2023/10/01 07:52:18;;;;;;;27.33;11.35;;;15.70;99.90;;;;;;4972061;28;20891;-67
2023/10/01 07:54:48;;;;;;;29.75;12.05;;;15.80;99.90;;;;;;4974757;28;20027;-72
2023/10/01 07:57:18;;;;;;;29.75;12.25;;;16.00;99.90;;;;;;4982120;28;20088;-68
2023/10/01 07:59:46;;;;;;;30.83;12.35;;;16.40;99.90;;;;;;4982522;28;20507;-69
2023/10/01 08:07:15;;;;;;;37.47;10.75;;;21.50;86.20;;;;;;4981742;28;20039;-71
2023/10/01 08:09:46;;;;;;;28.25;11.07;;;21.00;87.30;;;;;;4973973;28;20398;-72
2023/10/01 08:12:13;;;;;;;27.50;10.93;;;21.80;86.00;;;;;;4971258;28;20046;-72
2023/10/01 08:14:40;;;;;;;25.52;10.30;;;23.90;79.00;;;;;;4975299;28;20038;-71
2023/10/01 08:17:07;;;;;;;29.90;9.68;;;24.80;73.20;;;;;;4984186;28;20026;-71
2023/10/01 08:19:49;;;;;;;27.35;10.82;;;24.90;71.50;;;;;;4981085;28;20030;-72
2023/10/01 08:22:22;;;;;;;30.02;11.90;;;25.60;70.20;;;;;;4981335;28;20038;-71
2023/10/01 08:24:49;;;;;;;25.63;10.63;;;26.20;68.40;;;;;;4980946;28;20053;-70
2023/10/01 08:27:29;;;;;;;27.15;11.40;;;27.00;67.20;;;;;;4983334;28;20037;-69
2023/10/01 08:29:59;;;;;;;30.25;11.00;;;27.20;67.30;;;;;;4984681;28;20040;-71
2023/10/01 08:32:38;;;;;;;23.08;10.30;;;27.60;65.50;;;;;;4979874;28;20050;-72
2023/10/01 08:35:07;;;;;;;23.23;10.13;;;28.20;65.00;;;;;;4979034;28;20069;-68
2023/10/01 08:37:37;;;;;;;25.13;10.57;;;28.00;63.40;;;;;;4974401;28;20039;-71
2023/10/01 08:40:13;;;;;;;23.58;11.00;;;28.00;63.50;;;;;;4979454;28;20046;-69
2023/10/01 08:42:47;;;;;;;21.60;11.32;;;28.40;63.70;;;;;;4972234;28;20027;-70
2023/10/01 08:45:17;;;;;;;19.67;10.02;;;28.10;64.90;;;;;;4979729;28;20047;-72
2023/10/01 08:47:46;;;;;;;22.75;10.50;;;28.40;63.30;;;;;;4979878;28;20123;-68
2023/10/01 08:53:00;;;;;;;25.02;11.07;;;28.80;62.90;;;;;;4974834;28;20030;-70
2023/10/01 08:55:38;;;;;;;22.90;11.57;;;28.60;63.30;;;;;;4976344;28;20398;-69
2023/10/01 09:00:48;;;;;;;21.52;11.13;;;29.50;61.80;;;;;;4974050;28;20502;-69
2023/10/01 09:03:29;;;;;;;24.52;11.93;;;29.60;61.10;;;;;;4979998;28;20227;-69
2023/10/01 09:06:24;;;;;;;22.70;12.07;;;30.10;60.80;;;;;;4977749;28;20861;-68
2023/10/01 09:08:59;;;;;;;20.80;11.23;;;30.10;62.80;;;;;;4979078;28;20557;-69
2023/10/01 09:11:58;;;;;;;24.05;12.68;;;30.40;61.20;;;;;;4974282;28;20080;-68
2023/10/01 09:14:38;;;;;;;23.63;12.70;;;30.50;64.80;;;;;;4974013;28;20034;-71
2023/10/01 09:17:26;;;;;;;29.58;11.15;;;30.70;64.80;;;;;;4981924;28;20042;-69
2023/10/01 09:19:52;;;;;;;24.33;12.88;;;30.80;63.40;;;;;;4981428;28;20034;-68
2023/10/01 09:25:15;;;;;;;22.58;11.60;;;30.90;63.00;;;;;;4972475;28;19918;-68
2023/10/01 09:27:57;;;;;;;21.98;11.50;;;30.90;66.10;;;;;;4953607;28;20134;-68
2023/10/01 09:30:27;;;;;;;25.20;11.85;;;30.90;66.10;;;;;;4979336;28;20019;-69
2023/10/01 09:32:54;;;;;;;21.75;11.02;;;29.80;65.30;;;;;;4978157;28;20058;-68
2023/10/01 09:35:40;;;;;;;20.95;11.27;;;28.70;68.20;;;;;;4975032;28;20098;-69
2023/10/01 09:38:13;;;;;;;27.48;12.27;;;28.00;69.50;;;;;;4973569;28;20509;-70
2023/10/01 09:40:43;;;;;;;25.33;12.18;;;26.60;73.00;;;;;;4981158;28;20101;-72
2023/10/01 09:43:19;;;;;;;22.65;11.25;;;26.60;71.10;;;;;;4977546;28;20036;-72
2023/10/01 09:45:46;;;;;;;23.40;11.93;;;25.60;74.10;;;;;;4982561;28;20133;-70
2023/10/01 09:48:36;;;;;;;24.25;11.63;;;25.00;77.90;;;;;;4975316;28;20133;-70
2023/10/01 09:51:14;;;;;;;22.73;10.90;;;24.50;78.30;;;;;;4976976;28;20035;-70
2023/10/01 09:53:51;;;;;;;24.42;12.30;;;24.80;75.30;;;;;;4975624;28;20524;-67
2023/10/01 09:56:29;;;;;;;26.48;12.05;;;23.90;73.90;;;;;;4973302;28;20047;-71
2023/10/01 09:59:07;;;;;;;25.73;11.65;;;23.50;77.00;;;;;;4981220;28;20513;-71
2023/10/01 10:01:37;;;;;;;26.42;11.88;;;23.30;75.90;;;;;;4980362;28;20035;-71
2023/10/01 10:04:08;;;;;;;22.70;10.18;;;22.90;79.50;;;;;;4977183;28;20038;-71
2023/10/01 10:06:34;;;;;;;24.10;11.23;;;22.80;79.70;;;;;;4977264;28;20371;-69
2023/10/01 10:09:07;;;;;;;30.35;12.60;;;22.70;80.10;;;;;;4975895;28;20062;-70
2023/10/01 10:11:38;;;;;;;23.63;10.48;;;22.60;80.00;;;;;;4975964;28;20450;-71
2023/10/01 10:14:27;;;;;;;25.00;10.95;;;22.60;79.60;;;;;;4977137;28;20121;-68
2023/10/01 10:16:58;;;;;;;22.85;10.80;;;22.60;79.50;;;;;;4976216;28;20034;-68
2023/10/01 10:19:25;;;;;;;21.25;10.43;;;22.80;80.00;;;;;;4972530;28;20058;-70
2023/10/01 10:22:16;;;;;;;24.17;10.80;;;23.30;79.10;;;;;;4977349;28;20038;-70
2023/10/01 10:24:48;;;;;;;27.27;11.80;;;22.90;79.10;;;;;;4977831;28;20042;-69
2023/10/01 10:27:33;;;;;;;23.80;10.93;;;22.40;81.60;;;;;;4982786;28;20522;-71
2023/10/01 10:30:05;;;;;;;24.73;11.35;;;22.30;82.20;;;;;;4982023;28;20034;-69
2023/10/01 10:32:42;;;;;;;22.85;10.93;;;22.30;81.90;;;;;;4975859;28;20105;-66
2023/10/01 10:35:14;;;;;;;29.63;13.52;;;22.20;83.60;;;;;;4975480;28;20070;-66
2023/10/01 10:37:48;;;;;;;23.25;10.18;;;22.20;83.10;;;;;;4973900;28;20033;-68
2023/10/01 10:42:46;;;;;;;26.88;10.77;;;22.10;85.30;;;;;;4980676;28;20076;-67
2023/10/01 10:45:19;;;;;;;24.30;9.70;;;22.10;85.30;;;;;;4977549;28;20056;-68
2023/10/01 10:48:06;;;;;;;24.10;10.00;;;22.20;88.60;;;;;;4974168;28;20098;-67
2023/10/01 10:50:50;;;;;;;21.73;10.23;;;22.00;85.10;;;;;;4976182;28;20046;-69
2023/10/01 10:53:21;;;;;;;22.23;10.13;;;22.10;86.30;;;;;;4975489;28;20027;-67
2023/10/01 10:55:51;;;;;;;23.95;10.88;;;22.10;85.90;;;;;;4968326;28;20108;-67
2023/10/01 10:58:19;;;;;;;22.05;10.65;;;22.00;88.80;;;;;;4964992;28;20766;-65
2023/10/01 11:00:49;;;;;;;24.63;11.55;;;21.70;87.10;;;;;;4965653;28;20062;-67
2023/10/01 11:03:16;;;;;;;23.40;10.82;;;21.90;94.50;;;;;;4966141;28;20114;-69
2023/10/01 11:05:51;;;;;;;22.98;10.52;;;22.10;87.50;;;;;;4965727;28;20074;-65
2023/10/01 11:08:26;;;;;;;24.80;10.38;;;22.10;89.10;;;;;;4969368;28;20034;-65
2023/10/01 11:10:56;;;;;;;22.48;9.95;;;22.20;90.00;;;;;;4970517;28;20033;-66
2023/10/01 11:13:37;;;;;;;23.30;10.55;;;22.40;93.50;;;;;;4975494;28;20090;-69
2023/10/01 11:16:14;;;;;;;22.65;9.60;;;22.20;93.00;;;;;;4964583;28;20042;-65
2023/10/01 11:18:41;;;;;;;;;;;22.40;92.70;;;;;;4970559;28;20030;-70
2023/10/01 11:21:11;;;;;;;23.83;10.48;;;22.50;92.50;;;;;;4966095;28;19918;-65
2023/10/01 11:23:40;;;;;;;29.23;10.82;;;22.30;93.80;;;;;;4969069;28;20035;-65
2023/10/01 11:26:06;;;;;;;22.85;9.88;;;22.60;94.50;;;;;;5002211;28;20062;-70
2023/10/01 11:28:41;;;;;;;25.13;10.67;;;22.40;94.70;;;;;;4972553;28;20571;-65
2023/10/01 11:31:22;;;;;;;24.27;11.57;;;22.40;93.50;;;;;;4968072;28;20490;-65
2023/10/01 11:34:03;;;;;;;25.40;10.32;;;22.50;91.40;;;;;;4967845;28;20030;-65
2023/10/01 11:36:38;;;;;;;31.13;10.30;;;22.40;91.00;;;;;;4969951;28;20038;-65
2023/10/01 11:39:04;;;;;;;27.90;10.40;;;22.50;91.30;;;;;;4972317;28;20549;-65
2023/10/01 11:41:41;;;;;;;24.85;10.35;;;22.60;92.00;;;;;;4968780;28;20126;-64
2023/10/01 11:44:08;;;;;;;22.67;10.07;;;22.90;91.00;;;;;;4967536;28;20035;-64
2023/10/01 11:49:34;;;;;;;26.02;10.05;;;23.20;90.50;;;;;;4974678;28;20038;-67
2023/10/01 11:52:21;;;;;;;23.60;9.70;;;23.30;88.10;;;;;;4974122;28;20023;-66
2023/10/01 11:54:53;;;;;;;23.33;10.88;;;23.30;90.20;;;;;;4973309;28;20034;-68
2023/10/01 11:57:23;;;;;;;25.25;11.13;;;23.30;90.20;;;;;;4972615;28;20039;-67
2023/10/01 11:59:56;;;;;;;21.27;9.27;;;23.50;89.00;;;;;;4980617;28;20069;-66
2023/10/01 12:02:29;;;;;;;20.42;9.73;;;23.50;88.30;;;;;;4973140;28;20027;-69
2023/10/01 12:05:02;;;;;;;23.70;10.93;;;23.60;88.60;;;;;;4975169;28;20608;-66
2023/10/01 12:07:32;;;;;;;29.90;10.73;;;23.60;88.00;;;;;;4973253;28;20499;-67
2023/10/01 12:10:04;;;;;;;26.50;10.43;;;23.90;86.90;;;;;;4970230;28;20023;-66
2023/10/01 12:12:39;;;;;;;23.05;9.57;;;23.60;88.90;;;;;;4978469;28;20066;-66
2023/10/01 12:17:52;;;;;;;28.17;10.82;;;23.30;89.30;;;;;;4963995;28;20097;-66
2023/10/01 12:20:31;;;;;;;23.42;9.95;;;23.10;90.40;;;;;;4968638;28;20779;-68
2023/10/01 12:23:12;;;;;;;30.83;10.25;;;23.40;89.40;;;;;;4970022;28;20025;-67
2023/10/01 12:28:25;;;;;;;24.23;10.00;;;23.30;86.80;;;;;;4972602;28;20526;-66
2023/10/01 12:30:57;;;;;;;23.75;9.63;;;23.60;86.60;;;;;;4977010;28;20065;-65
2023/10/01 12:33:24;;;;;;;24.67;10.13;;;23.80;88.40;;;;;;5011735;28;20157;-66
2023/10/01 12:35:50;;;;;;;21.52;9.85;;;23.80;86.70;;;;;;4967755;28;20047;-65
2023/10/01 12:40:49;;;;;;;19.17;9.77;;;24.00;85.70;;;;;;4973312;28;20524;-66
2023/10/01 12:45:59;;;;;;;23.55;9.63;;;24.10;89.60;;;;;;4975540;28;20556;-66
2023/10/01 12:48:25;;;;;;;19.95;9.95;;;24.00;85.40;;;;;;4977590;28;20034;-66
2023/10/01 12:51:00;;;;;;;19.83;9.33;;;23.80;86.50;;;;;;4971475;28;20030;-65
2023/10/01 12:53:27;;;;;;;21.45;9.38;;;23.60;86.30;;;;;;4975385;28;20062;-66
2023/10/01 12:55:52;;;;;;;23.58;9.98;;;23.90;87.80;;;;;;4979653;28;20038;-68
2023/10/01 12:58:36;;;;;;;22.25;9.90;;;23.90;88.80;;;;;;5018026;28;20030;-66
2023/10/01 13:01:23;;;;;;;20.27;9.25;;;24.20;87.60;;;;;;4970868;28;20047;-66
2023/10/01 13:03:51;;;;;;;20.52;9.60;;;24.30;88.00;;;;;;4974642;28;20035;-66
2023/10/01 13:06:16;;;;;;;21.00;9.93;;;24.40;85.80;;;;;;4970387;28;20040;-66
2023/10/01 13:08:42;;;;;;;21.90;9.90;;;24.50;85.90;;;;;;4974577;28;20118;-66
2023/10/01 13:11:42;;;;;;;21.88;10.25;;;24.40;86.30;;;;;;4978503;28;20030;-67
2023/10/01 13:13:54;;;;;;;18.20;9.88;;;24.10;83.90;;;;;;4973886;28;20026;-66
2023/10/01 13:16:20;;;;;;;24.80;9.37;;;24.20;86.20;;;;;;4973072;28;20046;-66
2023/10/01 13:18:45;;;;;;;19.17;9.15;;;24.40;88.20;;;;;;4974793;28;20043;-65
2023/10/01 13:21:11;;;;;;;17.63;8.80;;;24.40;87.10;;;;;;4975845;28;20045;-67
2023/10/01 13:23:43;;;;;;;20.65;9.82;;;24.60;84.40;;;;;;4984798;28;20054;-68
2023/10/01 13:26:19;;;;;;;18.67;9.43;;;24.30;82.80;;;;;;4962392;28;20158;-68
2023/10/01 13:28:54;;;;;;;20.00;9.30;;;24.20;86.60;;;;;;4974024;28;20035;-69
2023/10/01 13:34:06;;;;;;;27.10;9.32;;;24.00;84.30;;;;;;4979127;28;20585;-67
2023/10/01 13:36:47;;;;;;;;;;;24.10;83.80;;;;;;4972838;28;20038;-67
2023/10/01 14:08:56;;;;;;;21.08;8.32;;;24.40;86.90;;;;;;4976099;28;20029;-66
2023/10/01 14:11:27;;;;;;;18.33;8.93;;;24.20;87.50;;;;;;4977241;28;20038;-66
2023/10/01 14:13:53;;;;;;;18.17;9.00;;;24.20;84.60;;;;;;4972112;28;20297;-66